Jingle Trail 2016

Overall Finish List

December 17, 2016


Split Second Productions

5K

Place Name City Bib No Age Gender Age Group Chip Time Gun Time Pace
1 Christian Hermann 2308 26 M 1 Overall 23:30.94 23:31.43 7:33/M
2 Sean Ziegler San Antonio TX 2427 39 M 1 35-39 23:46.10 23:46.88 7:39/M
3 Jacob McCain 2455 26 M 1 25-29 24:00.75 24:00.99 7:43/M
4 Evan McShane San Antonio TX 2282 14 M 1 0-14 24:01.34 24:01.34 7:43/M
5 Liza Hunter-Galvan San Antonio TX 2462 47 F 1 Overall 25:20.07 25:20.12 8:09/M
6 Charles Waterman San Antonio TX 2463 51 M 1 Masters 25:31.65 25:35.14 8:12/M
7 Andrew Micek 2347 15 M 1 15-19 26:12.39 26:12.39 8:25/M
8 Mathlew Cortez 2449 12 M 2 0-14 27:04.21 27:13.43 8:42/M
9 William French San Antonio TX 2365 16 M 2 15-19 27:08.49 27:09.27 8:43/M
10 Rafael Kirkparick Brownsville TX 2386 38 M 2 35-39 27:18.56 27:19.84 8:47/M
11 Kenneth McInnerney San Antonio TX 2395 34 M 1 30-34 27:21.55 27:22.72 8:48/M
12 Kevin Gonzalez 2432 13 M 3 0-14 27:36.26 27:38.21 8:52/M
13 Steffen Andersland San Antonio TX 2345 25 M 2 25-29 27:53.35 27:54.50 8:58/M
14 Jose Saucedo 2434 12 M 4 0-14 28:02.06 28:03.82 9:01/M
15 Dennis Houghton San Antonio TX 2381 34 M 2 30-34 28:19.18 28:20.77 9:06/M
16 Paul Alvarez Kerrville TX 2354 16 M 3 15-19 28:28.68 28:28.98 9:09/M
17 Nicolas Puente-Perez 2431 12 M 5 0-14 28:35.82 28:38.08 9:11/M
18 Chris Chesser Schertz TX 2368 34 M 3 30-34 28:37.28 28:38.93 9:12/M
19 Cary Garza Boerne TX 2634 47 M 1 45-49 29:18.74 29:34.95 9:25/M
20 Jonathan Alvarez 2353 14 M 6 0-14 29:29.55 29:34.05 9:29/M
21 Orlando Gonzales San Antonio TX 2659 57 M 1 55-59 29:31.22 29:34.51 9:29/M
22 Jesse Micek San Antonio TX 2344 47 M 2 45-49 29:43.14 29:45.35 9:33/M
23 Brad Anderson San Antonio TX 2355 53 M 1 50-54 30:06.28 30:09.30 9:41/M
24 Julia Vasquez Corpus Christi TX 2456 10 F 1 0-14 30:14.86 30:15.03 9:43/M
25 Stephanie Boulette San Antonio TX 2464 44 F 1 Masters 30:19.30 30:21.17 9:45/M
26 Eduardo Menchaca 2451 36 M 3 35-39 30:46.89 30:56.32 9:54/M
27 Ofilia Trevino San Antonio TX 2336 31 F 1 30-34 30:48.23 30:48.95 9:54/M
28 Diana Ruderman Heloteshelotes TX 2412 47 F 1 45-49 30:48.53 30:51.70 9:54/M
29 Pamela Toelle 2423 53 F 1 50-54 30:50.88 30:53.32 9:55/M
30 Levi Herrick 2375 13 M 7 0-14 31:05.40 31:09.59 10:00/M
31 Christian MacAllister Schertz TX 2391 48 M 3 45-49 31:12.40 31:18.02 10:02/M
32 Jesus Perez 2440 13 M 8 0-14 31:23.93 31:31.48 10:05/M
33 Cristina Grier San Antonio TX 2339 29 F 1 25-29 31:37.88 37:30.73 10:10/M
34 Cameron Cavin 2362 11 M 9 0-14 32:06.47 32:19.82 10:19/M
35 Ethan Hamlin 2678 8 M 10 0-14 32:40.99 32:42.05 10:30/M
36 Russell Roth San Antonio TX 2367 42 M 1 40-44 32:43.77 32:48.88 10:31/M
37 Joaquin Escobedo 2430 12 M 11 0-14 32:43.93 32:53.28 10:31/M
38 Brian Hamlin San Antonio TX 2670 44 M 2 40-44 32:44.13 32:44.78 10:32/M
39 John Paul Rubio Franco 2447 12 M 12 0-14 32:58.25 33:01.68 10:36/M
40 Noah Davila 2446 10 M 13 0-14 32:59.72 33:01.51 10:36/M
41 Kendall Leininger Boerne TX 2389 12 F 2 0-14 33:02.59 33:02.82 10:37/M
42 Tomas Torres San Antonio TX 2424 48 M 4 45-49 33:18.68 33:29.04 10:42/M
43 Mark Pumphrey New Braunfels TX 2408 53 M 2 50-54 33:35.46 33:39.57 10:48/M
44 Deborah Valdez San Antonio TX 991 44 F 1 40-44 33:39.25 33:41.52 10:49/M
45 Jose Franco San Antonio TX 2453 67 M 1 65-69 33:43.14 33:46.07 10:50/M
46 Eric Shuler San Antonio TX 881 42 M 3 40-44 33:48.09 33:50.00 10:52/M
47 Courtney Redding San Antonio TX 2309 24 F 1 20-24 33:53.33 33:59.85 10:54/M
48 Toby Streicher Boerne TX 2421 44 M 4 40-44 34:06.88 34:23.88 10:58/M
49 Ian Camarillo 2450 11 M 14 0-14 34:07.81 34:14.74 10:58/M
50 David Powell San Antonio TX 2341 58 M 2 55-59 34:14.37 34:17.28 11:00/M
51 Adam Sisson San Antonio TX 2415 36 M 4 35-39 34:18.39 34:24.14 11:02/M
52 Chris Merenda San Antonio TX 2396 26 M 3 25-29 34:26.82 34:33.80 11:04/M
53 Nathaniel Leonard San Antonio TX 2300 25 M 4 25-29 34:37.31 34:40.81 11:08/M
54 Esther Van Servellen 2425 41 F 2 40-44 34:53.67 35:00.42 11:13/M
55 Pat Roller Shiner TX 2411 51 M 3 50-54 35:14.99 35:32.89 11:20/M
56 Steve Drawert San Antonio TX 2364 46 M 5 45-49 35:40.71 35:57.41 11:28/M
57 Kelly Bono San Antonio TX 2335 38 F 1 35-39 35:41.14 35:47.50 11:28/M
58 Krzysztof Dorko San Antoniosan Antonio TX 944 44 M 5 40-44 36:41.28 37:08.69 11:48/M
59 Melinda De Leon San Antonio TX 2334 28 F 2 25-29 36:48.53 45:15.52 11:50/M
60 Hector De Leon 2333 28 M 5 25-29 36:53.76 45:21.17 11:52/M
61 Mark Robinson San Antonio TX 2410 59 M 3 55-59 37:02.24 37:07.34 11:54/M
62 Juan Cruz 2433 13 M 15 0-14 37:03.95 37:06.54 11:55/M
63 Tanya Campen San Antonio TX 2343 37 F 2 35-39 37:04.85 37:22.92 11:55/M
64 Jeffrey Matney 2393 31 M 4 30-34 37:36.04 38:05.86 12:05/M
65 Nicole Matney Schertz TX 2394 30 F 2 30-34 37:36.32 38:06.09 12:05/M
66 Brendan Stephanian 2418 28 M 6 25-29 37:45.21 38:14.03 12:08/M
67 Melissa Martinez San Antonio TX 2392 41 F 3 40-44 38:04.26 38:08.80 12:14/M
68 Linda Robinson 2409 46 F 2 45-49 38:24.10 38:28.71 12:21/M
69 Orlando Montoya 2398 34 M 5 30-34 39:27.68 39:37.86 12:41/M
70 Julia Galvan San Antonio TX 2327 50 F 2 50-54 39:37.42 40:18.83 12:44/M
71 Javier Melendez San Antonio TX 1000 46 M 6 45-49 39:45.93 39:48.70 12:47/M
72 Erika Neuman San Antonio TX 2332 37 F 3 35-39 39:56.93 40:11.77 12:50/M
73 Nikolas Rodriguez 2443 13 M 16 0-14 39:57.52 39:59.62 12:51/M
74 Reggie Blakeley 2358 31 M 6 30-34 40:08.36 40:26.97 12:54/M
75 Brad Toelle Kerrville TX 2422 58 M 4 55-59 40:25.31 40:46.97 13:00/M
76 Jan Brown San Antonio TX 2351 42 F 4 40-44 40:34.26 40:45.43 13:03/M
77 Caden Cavin 2361 8 M 17 0-14 40:42.76 40:55.22 13:05/M
78 Brian Jones 2383 44 M 6 40-44 40:43.33 41:11.51 13:06/M
79 Rebecca Lopez 2452 28 F 3 25-29 40:43.44 40:54.29 13:06/M
80 Jaden Rubio 2448 11 M 18 0-14 40:49.77 40:53.43 13:07/M
81 Logan Garza 2653 12 F 3 0-14 40:52.56 41:10.18 13:08/M
82 Shelby Streicher 2420 13 F 4 0-14 40:52.73 41:10.13 13:08/M
83 Julissa Perez 2441 15 F 1 15-19 41:16.58 41:20.78 13:16/M
84 John Collins 2349 36 M 5 35-39 41:25.93 41:40.34 13:19/M
85 Priscilla Bianchi Spring Branch TX 2357 47 F 3 45-49 41:50.46 41:59.34 13:27/M
86 Sarah Haller Floresville TX 934 33 F 3 30-34 41:53.81 41:58.69 13:28/M
87 Michael Brown 2352 44 M 7 40-44 41:58.11 42:09.52 13:30/M
88 Mia Flores 2442 13 F 5 0-14 42:00.14 42:08.36 13:30/M
89 Cadence Curry 2437 11 F 6 0-14 42:04.90 42:08.43 13:32/M
90 Viviana Perez 2439 11 F 7 0-14 42:05.79 42:09.11 13:32/M
91 Kimberly Keeling Bandera TX 2369 34 F 4 30-34 43:53.33 44:06.58 14:07/M
92 Patrick Valdez San Antonio TX 999 46 M 7 45-49 44:15.28 44:31.98 14:14/M
93 George Wright III San Antonio TX 2359 50 M 4 50-54 44:20.46 44:26.90 14:15/M
94 Allen Reininger San Antonio TX 2465 52 M 5 50-54 44:43.52 45:01.31 14:23/M
95 Todd Hunter Corpus Christi TX 936 63 M 1 60-64 44:49.60 45:01.35 14:25/M
96 Paul Hodgdon San Antonio TX 2378 45 M 8 45-49 45:22.41 45:49.81 14:35/M
97 Jaxson Hover San Antonio TX 2459 10 M 19 0-14 45:56.18 46:05.97 14:46/M
98 John Hover San Antonio TX 2458 40 M 8 40-44 45:57.02 46:06.88 14:46/M
99 Jennifer Micek 2346 43 F 5 40-44 46:43.64 47:00.56 15:01/M
100 Kenzie Herrick 2373 10 F 8 0-14 47:40.53 47:48.34 15:20/M
 
Place Name City Bib No Age Gender Age Group Chip Time Gun Time Pace
101 Laura Herrick Dallas TX 2374 48 F 4 45-49 47:40.83 47:49.23 15:20/M
102 Mike Herrick 2376 52 M 6 50-54 47:42.93 47:50.70 15:20/M
103 Adriano Rodriguez 2445 10 M 20 0-14 47:43.72 47:45.51 15:21/M
104 Kristie Collins Cibolo TX 2348 32 F 5 30-34 48:06.33 48:19.17 15:28/M
105 Samantha Watkins 2338 23 F 2 20-24 48:30.32 48:50.54 15:36/M
106 Kim Stephanian San Antonio TX 2419 31 F 6 30-34 48:30.82 49:01.32 15:36/M
107 Barb Watkins San Antonio TX 2337 56 F 1 55-59 48:31.01 48:51.23 15:36/M
108 Liz Reichman San Antonio TX 2307 54 F 3 50-54 48:45.01 49:04.82 15:41/M
109 Irma Logan San Antonio TX 2390 50 F 4 50-54 48:52.27 49:00.96 15:43/M
110 Jailey Navarro 2403 9 F 9 0-14 48:58.70 49:05.26 15:45/M
111 Kenneth Schatte New Braunfels TX 2413 53 M 7 50-54 49:00.17 49:06.46 15:45/M
112 Brad Grier 2340 44 M 9 40-44 49:17.48 55:11.42 15:51/M
113 Christina Hunter Corpus Christi TX 943 25 F 4 25-29 50:03.37 50:16.14 16:06/M
114 Colleen Reid San Antonio TX 2461 46 F 5 45-49 50:04.78 50:12.52 16:06/M
115 Elise Van Courtlandt San Antonio TX 929 51 F 5 50-54 50:04.79 50:13.15 16:06/M
116 Ivan Pena 2407 30 M 7 30-34 51:04.71 51:38.08 16:25/M
117 Andres Galvan 2328 10 M 21 0-14 51:08.72 51:16.04 16:26/M
118 Arly Hernandez 2435 13 F 10 0-14 51:39.67 51:49.90 16:36/M
119 Cristal Ortiz San Angelo TX 2404 23 F 3 20-24 51:39.84 51:57.30 16:36/M
120 Cristela Ortiz San Antonio TX 2405 27 F 5 25-29 51:41.67 51:58.82 16:37/M
121 Sonia Trefflich San Antonio TX 2310 30 F 7 30-34 52:04.58 52:25.79 16:45/M
122 Debbi Kiefer Banderabandera TX 2385 65 F 1 65-69 52:14.68 52:34.37 16:48/M
123 Andrea Fitzgerald San Antonio TX 2312 30 F 8 30-34 52:15.95 52:36.41 16:48/M
124 Emily Bellamy San Antonio TX 2330 32 F 9 30-34 52:21.98 52:37.87 16:50/M
125 Lesley Achterberg Schertz TX 2331 27 F 6 25-29 52:22.53 52:38.23 16:50/M
126 Kendyl Zunker Marion TX 2429 18 F 2 15-19 52:23.39 52:43.16 16:51/M
127 Amanda Zunker 2428 27 F 7 25-29 52:24.20 52:44.51 16:51/M
128 Andrew Hall San Antonio TX 2283 58 M 5 55-59 52:24.34 52:47.75 16:51/M
129 Deb Schott 2350 56 F 2 55-59 52:55.00 53:11.07 17:01/M
130 Caroline Holsombeck San Antonio TX 2379 44 F 6 40-44 53:24.02 53:45.13 17:10/M
131 Dale Holsombeck 2380 46 M 9 45-49 53:24.30 53:45.35 17:10/M
132 Julie Gladstone San Antonio TX 2658 26 F 8 25-29 53:24.59 53:47.27 17:10/M
133 Marta Dorko 949 40 F 7 40-44 53:46.69 54:13.87 17:17/M
134 Jossue Montoya 2397 43 M 10 40-44 54:07.36 54:41.74 17:24/M
135 Julianna Hover San Antonio TX 2460 10 F 11 0-14 54:24.12 54:32.05 17:30/M
136 Daniel Lasater San Antonio TX 2388 41 M 11 40-44 54:33.30 54:42.16 17:32/M
137 Abbey Lasater 2387 11 F 12 0-14 54:33.40 54:41.67 17:32/M
138 Joshua Smith 2416 20 M 1 20-24 54:55.70 55:14.87 17:39/M
139 Glennis Bryce San Antonio TX 2371 59 F 3 55-59 55:06.48 55:23.71 17:43/M
140 Jennifer Garcia San Antonio TX 2325 40 F 8 40-44 55:25.25 55:40.50 17:49/M
141 Wendy Nunnery 2298 52 F 6 50-54 55:37.80 56:00.76 17:53/M
142 Liz Murray San Antonio TX 2400 48 F 6 45-49 55:42.91 55:56.95 17:55/M
143 Katie Vivrett San Antonio TX 2426 26 F 9 25-29 56:01.47 56:19.14 18:01/M
144 Elizabeth Sifuentes San Antonio TX 2414 33 F 10 30-34 56:11.58 56:44.85 18:04/M
145 Cindy Gallego San Antonio TX 2625 28 F 10 25-29 56:12.16 56:44.94 18:04/M
146 Ricardo Duran Pearsall TX 935 47 M 10 45-49 56:22.46 56:33.67 18:07/M
147 Peggy Fisher San Antonio TX 2088 55 F 4 55-59 56:47.01 57:00.42 18:15/M
148 John Garcia II 2326 40 M 12 40-44 57:35.34 57:51.75 18:31/M
149 Alayna Leos 2438 12 F 13 0-14 58:20.73 58:30.91 18:45/M
150 Kathryn Schade San Antonio TX 2454 48 F 7 45-49 58:24.92 58:47.17 18:47/M
151 Keith Smith San Antonio TX 2417 55 M 6 55-59 58:25.64 58:44.39 18:47/M
152 Frank Galvan 2329 55 M 7 55-59 58:28.52 58:35.88 18:48/M
153 Jaclyne Ortiz San Antonio TX 2406 25 F 11 25-29 59:41.75 1:00:10.91 19:11/M
154 Warren Alden San Antonio TX 2240 43 M 13 40-44 1:01:53.12 1:02:18.63 19:54/M
155 Michael Hackett 2267 11 M 22 0-14 1:01:53.33 1:02:18.87 19:54/M
156 Juliana Carlo San Antonio TX 886 53 F 7 50-54 1:02:20.93 1:02:34.91 20:03/M
157 Viviana Rodriguez 2436 12 F 14 0-14 1:02:25.55 1:02:27.93 20:04/M
158 Ryan Campen San Antonio TX 2457 37 M 6 35-39 1:11:12.01 1:11:30.97 22:54/M
159 Jaimee Nash 2401 18 F 3 15-19 1:11:44.47 1:12:11.50 23:04/M
160 Lorianne Nash Schertz TX 2402 49 F 8 45-49 1:11:44.86 1:12:11.64 23:04/M
161 Nichole Jones 2384 17 F 4 15-19 1:11:44.96 1:12:12.51 23:04/M
162 Lori Alden 2243 49 F 9 45-49 1:12:50.14 1:13:16.59 23:25/M
163 Becky Nguyen 2277 31 F 11 30-34 1:12:51.76 1:13:16.37 23:25/M
164 Stephanie Steinle 917 53 F 8 50-54 1:13:08.99 1:13:23.76 23:31/M
165 Linda Carey 925 50 F 9 50-54 1:13:10.05 1:13:24.30 23:32/M
166 Xochitl Castellanos-Montoya San Antonio TX 2360 47 F 10 45-49 1:14:34.67 1:15:06.81 23:59/M
167 Katherine Hodgdon 2377 45 F 11 45-49 1:14:45.31 1:15:07.00 24:02/M
168 Lawanda Clark San Antonio TX 2363 44 F 9 40-44 1:14:53.74 1:15:09.75 24:05/M
169 Kimberly Hatfield Tarpley TX 2372 59 F 5 55-59 1:14:56.47 1:15:11.67 24:06/M
170 Linda Campen Mount Juliet TN 2342 64 F 1 60-64 1:28:21.72 1:28:41.01 28:25/M